Time,TemperatureF,DewpointF,PressureIn,WindDirection,WindDirectionDegrees,WindSpeedMPH,WindSpeedGustMPH,Humidity,HourlyPrecipIn,Conditions,Clouds,dailyrainin,SoftwareType,DateUTC
2013-04-06 00:00:00,48.6,46.7,30.19,SW,231,0.0,0.0,93,0.00,,CLR,0.08,VWS V14.01,2013-04-06 04:00:00,
2013-04-06 00:01:00,48.6,46.7,30.19,SW,231,0.0,0.0,93,0.00,,CLR,0.08,VWS V14.01,2013-04-06 04:01:00,
2013-04-06 00:02:00,48.6,46.7,30.19,SW,231,0.0,0.0,93,0.00,,CLR,0.00,VWS V14.01,2013-04-06 04:02:00,
2013-04-06 00:07:00,48.5,46.6,30.19,SW,231,0.0,0.0,93,0.00,,CLR,0.00,VWS V14.01,2013-04-06 04:07:00,
2013-04-06 00:12:00,48.2,46.3,30.19,SW,231,0.0,0.0,93,0.00,,CLR,0.00,VWS V14.01,2013-04-06 04:12:00,
2013-04-06 00:17:00,47.9,46.0,30.19,SW,231,0.0,0.0,93,0.00,,CLR,0.00,VWS V14.01,2013-04-06 04:17:00,
2013-04-06 00:22:00,47.7,45.8,30.19,SW,231,0.0,0.0,93,0.00,,CLR,0.00,VWS V14.01,2013-04-06 04:22:00,
2013-04-06 00:27:00,47.4,45.5,30.19,SW,231,0.0,0.0,93,0.00,,CLR,0.00,VWS V14.01,2013-04-06 04:27:00,
2013-04-06 00:32:00,47.3,45.4,30.20,SW,231,0.0,0.0,93,0.00,,CLR,0.00,VWS V14.01,2013-04-06 04:32:00,
2013-04-06 00:37:00,47.0,45.1,30.20,SW,231,0.0,0.0,93,0.00,,CLR,0.00,VWS V14.01,2013-04-06 04:37:00,
2013-04-06 00:42:00,46.7,44.8,30.20,SW,231,0.0,0.0,93,0.00,,CLR,0.00,VWS V14.01,2013-04-06 04:42:00,
2013-04-06 00:47:00,46.4,44.5,30.20,SW,231,0.0,0.0,93,0.00,,CLR,0.00,VWS V14.01,2013-04-06 04:47:00,
2013-04-06 00:52:00,46.2,44.6,30.20,SW,231,0.0,0.0,94,0.00,,CLR,0.00,VWS V14.01,2013-04-06 04:52:00,
2013-04-06 00:57:00,46.1,44.5,30.20,SW,231,0.0,0.0,94,0.00,,CLR,0.00,VWS V14.01,2013-04-06 04:57:00,
2013-04-06 01:03:00,46.0,44.4,30.20,SW,231,0.0,0.0,94,0.00,,CLR,0.00,VWS V14.01,2013-04-06 05:03:00,
2013-04-06 01:08:00,45.8,44.2,30.20,SW,231,0.0,0.0,94,0.00,,CLR,0.00,VWS V14.01,2013-04-06 05:08:00,
2013-04-06 01:13:00,45.7,44.1,30.20,SW,231,0.0,0.0,94,0.00,,CLR,0.00,VWS V14.01,2013-04-06 05:13:00,
2013-04-06 01:18:00,45.5,43.9,30.20,SW,231,0.0,0.0,94,0.00,,CLR,0.00,VWS V14.01,2013-04-06 05:18:00,
2013-04-06 01:24:00,45.4,43.8,30.20,SW,231,0.0,0.0,94,0.00,,CLR,0.00,VWS V14.01,2013-04-06 05:24:00,
2013-04-06 01:29:00,45.1,43.5,30.20,SW,231,0.0,0.0,94,0.00,,CLR,0.00,VWS V14.01,2013-04-06 05:29:00,
2013-04-06 01:34:00,44.9,43.3,30.20,SW,231,0.0,0.0,94,0.00,,CLR,0.00,VWS V14.01,2013-04-06 05:34:00,
2013-04-06 01:39:00,44.8,43.5,30.20,SW,231,0.0,0.0,95,0.00,,CLR,0.00,VWS V14.01,2013-04-06 05:39:00,
2013-04-06 01:44:00,44.6,43.3,30.20,SW,231,0.0,0.0,95,0.00,,CLR,0.00,VWS V14.01,2013-04-06 05:44:00,
2013-04-06 01:49:00,44.8,43.5,30.21,SW,231,0.0,0.0,95,0.00,,CLR,0.00,VWS V14.01,2013-04-06 05:49:00,
2013-04-06 01:54:00,44.9,43.6,30.21,SW,231,0.0,0.0,95,0.00,,CLR,0.00,VWS V14.01,2013-04-06 05:54:00,
2013-04-06 01:59:00,44.9,43.6,30.21,SW,231,0.0,0.0,95,0.00,,CLR,0.00,VWS V14.01,2013-04-06 05:59:00,
2013-04-06 02:04:00,45.1,43.8,30.21,SW,231,0.0,0.0,95,0.00,,CLR,0.00,VWS V14.01,2013-04-06 06:04:00,
2013-04-06 02:09:00,45.1,43.8,30.21,SW,231,0.0,0.0,95,0.00,,CLR,0.00,VWS V14.01,2013-04-06 06:09:00,
2013-04-06 02:14:00,45.1,43.8,30.21,SW,231,0.0,0.0,95,0.00,,CLR,0.00,VWS V14.01,2013-04-06 06:14:00,
2013-04-06 02:19:00,45.2,44.1,30.20,SW,231,0.0,0.0,96,0.00,,CLR,0.00,VWS V14.01,2013-04-06 06:19:00,
2013-04-06 02:24:00,45.2,43.9,30.20,SW,231,0.0,0.0,95,0.00,,CLR,0.00,VWS V14.01,2013-04-06 06:24:00,
2013-04-06 02:29:00,45.2,43.9,30.20,SW,231,0.0,0.0,95,0.00,,CLR,0.00,VWS V14.01,2013-04-06 06:29:00,
2013-04-06 02:35:00,45.1,43.8,30.20,SW,231,0.0,0.0,95,0.00,,CLR,0.00,VWS V14.01,2013-04-06 06:35:00,
2013-04-06 02:40:00,44.9,43.8,30.20,SW,231,0.0,0.0,96,0.00,,CLR,0.00,VWS V14.01,2013-04-06 06:40:00,
2013-04-06 02:45:00,44.8,43.7,30.20,SW,231,0.0,0.0,96,0.00,,CLR,0.00,VWS V14.01,2013-04-06 06:45:00,
2013-04-06 02:50:00,44.6,43.5,30.21,SW,231,0.0,0.0,96,0.00,,CLR,0.00,VWS V14.01,2013-04-06 06:50:00,
2013-04-06 02:55:00,44.6,43.5,30.21,SW,231,0.0,0.0,96,0.00,,CLR,0.00,VWS V14.01,2013-04-06 06:55:00,
2013-04-06 03:01:00,44.9,43.8,30.22,SW,231,0.0,0.0,96,0.00,,CLR,0.00,VWS V14.01,2013-04-06 07:01:00,
2013-04-06 03:06:00,45.2,44.1,30.22,SW,231,0.0,0.0,96,0.00,,CLR,0.00,VWS V14.01,2013-04-06 07:06:00,
2013-04-06 03:11:00,45.4,44.3,30.22,SW,231,0.0,0.0,96,0.00,,CLR,0.00,VWS V14.01,2013-04-06 07:11:00,
2013-04-06 03:16:00,45.7,44.6,30.22,SW,231,0.0,0.0,96,0.00,,CLR,0.00,VWS V14.01,2013-04-06 07:16:00,
2013-04-06 03:21:00,46.0,44.9,30.22,SW,231,0.0,0.0,96,0.00,,CLR,0.00,VWS V14.01,2013-04-06 07:21:00,
2013-04-06 03:26:00,46.1,45.0,30.22,SW,231,0.0,0.0,96,0.00,,CLR,0.00,VWS V14.01,2013-04-06 07:26:00,
2013-04-06 03:31:00,46.1,45.0,30.22,SW,231,0.0,0.0,96,0.00,,CLR,0.00,VWS V14.01,2013-04-06 07:31:00,
2013-04-06 03:37:00,46.1,45.0,30.22,SW,231,0.0,0.0,96,0.00,,CLR,0.00,VWS V14.01,2013-04-06 07:37:00,
2013-04-06 03:42:00,46.0,44.9,30.22,SW,231,0.0,0.0,96,0.00,,CLR,0.00,VWS V14.01,2013-04-06 07:42:00,
2013-04-06 03:48:00,46.0,44.9,30.22,SW,231,0.0,0.0,96,0.00,,CLR,0.00,VWS V14.01,2013-04-06 07:48:00,
2013-04-06 03:53:00,46.0,44.9,30.22,SW,231,0.0,0.0,96,0.00,,CLR,0.00,VWS V14.01,2013-04-06 07:53:00,
2013-04-06 03:58:00,46.0,44.9,30.22,SW,231,0.0,0.0,96,0.00,,CLR,0.00,VWS V14.01,2013-04-06 07:58:00,
2013-04-06 04:03:00,46.0,44.9,30.22,West,273,0.0,0.0,96,0.00,,CLR,0.00,VWS V14.01,2013-04-06 08:03:00,
2013-04-06 04:09:00,46.0,44.9,30.22,West,272,0.0,0.0,96,0.00,,CLR,0.00,VWS V14.01,2013-04-06 08:09:00,
2013-04-06 04:14:00,46.0,44.9,30.22,West,272,0.0,0.0,96,0.00,,CLR,0.00,VWS V14.01,2013-04-06 08:14:00,
2013-04-06 04:19:00,46.0,44.9,30.23,West,272,0.0,0.0,96,0.00,,CLR,0.00,VWS V14.01,2013-04-06 08:19:00,
2013-04-06 04:24:00,46.0,44.9,30.23,West,273,0.0,0.0,96,0.00,,CLR,0.00,VWS V14.01,2013-04-06 08:24:00,
2013-04-06 04:29:00,45.8,44.7,30.23,West,272,0.0,0.0,96,0.00,,CLR,0.00,VWS V14.01,2013-04-06 08:29:00,
2013-04-06 04:34:00,45.7,44.6,30.23,West,272,0.0,0.0,96,0.00,,CLR,0.00,VWS V14.01,2013-04-06 08:34:00,
2013-04-06 04:39:00,45.5,44.4,30.23,West,272,0.0,0.0,96,0.00,,CLR,0.00,VWS V14.01,2013-04-06 08:39:00,
2013-04-06 04:44:00,45.4,44.3,30.23,West,272,0.0,0.0,96,0.00,,CLR,0.00,VWS V14.01,2013-04-06 08:44:00,
2013-04-06 04:49:00,45.4,44.3,30.23,West,272,0.0,0.0,96,0.00,,CLR,0.00,VWS V14.01,2013-04-06 08:49:00,
2013-04-06 04:54:00,45.2,44.1,30.23,West,273,0.0,0.0,96,0.00,,CLR,0.00,VWS V14.01,2013-04-06 08:54:00,
2013-04-06 04:59:00,45.2,44.1,30.23,West,273,0.0,0.0,96,0.00,,CLR,0.00,VWS V14.01,2013-04-06 08:59:00,
2013-04-06 05:04:00,45.1,43.8,30.23,West,273,0.0,0.0,95,0.00,,CLR,0.00,VWS V14.01,2013-04-06 09:04:00,
2013-04-06 05:09:00,44.9,43.6,30.23,West,272,0.0,0.0,95,0.00,,CLR,0.00,VWS V14.01,2013-04-06 09:09:00,
2013-04-06 05:15:00,44.8,43.5,30.23,West,273,0.0,0.0,95,0.00,,CLR,0.00,VWS V14.01,2013-04-06 09:15:00,
2013-04-06 05:20:00,44.6,43.3,30.24,West,273,0.0,0.0,95,0.00,,CLR,0.00,VWS V14.01,2013-04-06 09:20:00,
2013-04-06 05:25:00,44.6,43.5,30.24,West,273,0.0,0.0,96,0.00,,CLR,0.00,VWS V14.01,2013-04-06 09:25:00,
2013-04-06 05:30:00,44.6,43.5,30.24,West,272,0.0,0.0,96,0.00,,CLR,0.00,VWS V14.01,2013-04-06 09:30:00,
2013-04-06 05:35:00,44.6,43.5,30.25,West,273,0.0,0.0,96,0.00,,CLR,0.00,VWS V14.01,2013-04-06 09:35:00,
2013-04-06 05:40:00,44.6,43.3,30.25,West,273,0.0,0.0,95,0.00,,CLR,0.00,VWS V14.01,2013-04-06 09:40:00,
2013-04-06 05:46:00,44.5,43.2,30.25,West,272,0.0,0.0,95,0.00,,CLR,0.00,VWS V14.01,2013-04-06 09:46:00,
2013-04-06 05:51:00,44.2,42.9,30.25,West,273,0.0,0.0,95,0.00,,CLR,0.00,VWS V14.01,2013-04-06 09:51:00,
2013-04-06 05:56:00,44.1,42.8,30.25,West,273,0.0,0.0,95,0.00,,CLR,0.00,VWS V14.01,2013-04-06 09:56:00,
2013-04-06 06:01:00,43.8,42.5,30.25,West,272,0.0,0.0,95,0.00,,CLR,0.00,VWS V14.01,2013-04-06 10:01:00,
2013-04-06 06:06:00,43.5,42.2,30.25,West,273,0.0,0.0,95,0.00,,CLR,0.00,VWS V14.01,2013-04-06 10:06:00,
2013-04-06 06:11:00,43.2,41.9,30.25,West,272,0.0,0.0,95,0.00,,CLR,0.00,VWS V14.01,2013-04-06 10:11:00,
2013-04-06 06:16:00,43.1,41.8,30.26,West,272,0.0,0.0,95,0.00,,CLR,0.00,VWS V14.01,2013-04-06 10:16:00,
2013-04-06 06:21:00,42.9,41.6,30.26,West,273,0.0,0.0,95,0.00,,CLR,0.00,VWS V14.01,2013-04-06 10:21:00,
2013-04-06 06:26:00,42.9,41.8,30.26,West,273,0.0,0.0,96,0.00,,CLR,0.00,VWS V14.01,2013-04-06 10:26:00,
2013-04-06 06:31:00,42.9,41.8,30.27,West,272,0.0,0.0,96,0.00,,CLR,0.00,VWS V14.01,2013-04-06 10:31:00,
2013-04-06 06:37:00,43.1,42.0,30.27,West,273,0.0,0.0,96,0.00,,CLR,0.00,VWS V14.01,2013-04-06 10:37:00,
2013-04-06 06:42:00,43.1,42.0,30.27,West,273,0.0,0.0,96,0.00,,CLR,0.00,VWS V14.01,2013-04-06 10:42:00,
2013-04-06 06:47:00,42.9,41.8,30.27,West,273,0.0,0.0,96,0.00,,CLR,0.00,VWS V14.01,2013-04-06 10:47:00,
2013-04-06 06:52:00,42.9,41.8,30.27,West,273,0.0,0.0,96,0.00,,CLR,0.00,VWS V14.01,2013-04-06 10:52:00,
2013-04-06 06:57:00,43.1,42.0,30.27,West,273,0.0,0.0,96,0.00,,CLR,0.00,VWS V14.01,2013-04-06 10:57:00,
2013-04-06 07:02:00,43.1,42.0,30.28,West,273,0.0,0.0,96,0.00,,CLR,0.00,VWS V14.01,2013-04-06 11:02:00,
2013-04-06 07:07:00,43.2,42.1,30.28,West,273,0.0,0.0,96,0.00,,CLR,0.00,VWS V14.01,2013-04-06 11:07:00,
2013-04-06 07:12:00,43.3,42.2,30.28,West,273,0.0,0.0,96,0.00,,CLR,0.00,VWS V14.01,2013-04-06 11:12:00,
2013-04-06 07:17:00,43.3,42.2,30.28,West,272,0.0,0.0,96,0.00,,CLR,0.00,VWS V14.01,2013-04-06 11:17:00,
2013-04-06 07:22:00,43.3,42.2,30.28,West,272,0.0,0.0,96,0.00,,CLR,0.00,VWS V14.01,2013-04-06 11:22:00,
2013-04-06 07:28:00,43.3,42.2,30.28,West,273,0.0,0.0,96,0.00,,CLR,0.00,VWS V14.01,2013-04-06 11:28:00,
2013-04-06 07:33:00,43.5,42.4,30.28,West,273,0.0,0.0,96,0.00,,CLR,0.00,VWS V14.01,2013-04-06 11:33:00,
2013-04-06 07:36:00,43.6,42.8,30.28,West,272,0.0,0.0,97,0.00,,CLR,0.00,VWS V14.01,2013-04-06 11:36:00,
2013-04-06 07:41:00,43.9,43.1,30.28,West,272,0.0,0.0,97,0.00,,CLR,0.00,VWS V14.01,2013-04-06 11:41:00,
2013-04-06 07:47:00,44.3,43.5,30.29,West,273,0.0,0.0,97,0.00,,CLR,0.00,VWS V14.01,2013-04-06 11:47:00,
2013-04-06 07:52:00,44.9,44.4,30.29,West,273,0.0,0.0,98,0.00,,CLR,0.00,VWS V14.01,2013-04-06 11:52:00,
2013-04-06 07:57:00,46.0,45.5,30.29,West,273,0.0,0.0,98,0.00,,CLR,0.00,VWS V14.01,2013-04-06 11:57:00,
2013-04-06 08:02:00,46.8,46.3,30.30,West,273,0.0,0.0,98,0.00,,CLR,0.00,VWS V14.01,2013-04-06 12:02:00,
2013-04-06 08:07:00,47.3,46.8,30.30,West,272,0.0,0.0,98,0.00,,CLR,0.00,VWS V14.01,2013-04-06 12:07:00,
2013-04-06 08:12:00,47.7,46.9,30.30,West,273,0.0,0.0,97,0.00,,CLR,0.00,VWS V14.01,2013-04-06 12:12:00,
2013-04-06 08:18:00,48.6,48.1,30.30,West,273,0.0,0.0,98,0.00,,CLR,0.00,VWS V14.01,2013-04-06 12:18:00,
2013-04-06 08:23:00,49.2,48.4,30.30,West,273,0.0,0.0,97,0.00,,CLR,0.00,VWS V14.01,2013-04-06 12:23:00,
2013-04-06 08:28:00,49.5,48.4,30.30,West,273,0.0,0.0,96,0.00,,CLR,0.00,VWS V14.01,2013-04-06 12:28:00,
2013-04-06 08:33:00,49.9,48.5,30.30,West,273,0.0,0.0,95,0.00,,CLR,0.00,VWS V14.01,2013-04-06 12:33:00,
2013-04-06 08:38:00,50.5,49.1,30.30,West,273,0.0,0.0,95,0.00,,CLR,0.00,VWS V14.01,2013-04-06 12:38:00,
2013-04-06 08:44:00,51.3,49.6,30.30,West,273,0.0,0.0,94,0.00,,CLR,0.00,VWS V14.01,2013-04-06 12:44:00,
2013-04-06 08:49:00,51.9,49.9,30.31,West,274,0.0,0.0,93,0.00,,CLR,0.00,VWS V14.01,2013-04-06 12:49:00,
2013-04-06 08:54:00,52.8,50.2,30.31,West,274,0.0,0.0,91,0.00,,CLR,0.00,VWS V14.01,2013-04-06 12:54:00,
2013-04-06 08:59:00,53.2,49.7,30.31,SW,220,0.0,0.0,88,0.00,,CLR,0.00,VWS V14.01,2013-04-06 12:59:00,
2013-04-06 09:04:00,53.8,49.7,30.31,SW,220,0.0,0.0,86,0.00,,CLR,0.00,VWS V14.01,2013-04-06 13:04:00,
2013-04-06 09:09:00,54.2,49.5,30.31,SW,220,0.0,0.0,84,0.00,,CLR,0.00,VWS V14.01,2013-04-06 13:09:00,
2013-04-06 09:14:00,54.5,48.8,30.31,SW,233,0.0,0.0,81,0.00,,CLR,0.00,VWS V14.01,2013-04-06 13:14:00,
2013-04-06 09:19:00,55.3,50.2,30.31,SW,233,0.0,0.0,83,0.00,,CLR,0.00,VWS V14.01,2013-04-06 13:19:00,
2013-04-06 09:24:00,55.9,48.5,30.31,WSW,248,0.0,0.0,76,0.00,,CLR,0.00,VWS V14.01,2013-04-06 13:24:00,
2013-04-06 09:29:00,56.6,48.8,30.31,WSW,248,0.0,2.0,75,0.00,,CLR,0.00,VWS V14.01,2013-04-06 13:29:00,
2013-04-06 09:34:00,57.3,49.5,30.31,WSW,250,0.0,0.0,75,0.00,,CLR,0.00,VWS V14.01,2013-04-06 13:34:00,
2013-04-06 09:39:00,58.1,48.8,30.31,WSW,251,0.0,0.0,71,0.01,,CLR,0.01,VWS V14.01,2013-04-06 13:39:00,
2013-04-06 09:45:00,59.3,49.5,30.31,WSW,251,0.0,0.0,70,0.01,,CLR,0.01,VWS V14.01,2013-04-06 13:45:00,
2013-04-06 09:50:00,60.5,47.9,30.31,NW,314,0.0,0.0,63,0.01,,CLR,0.01,VWS V14.01,2013-04-06 13:50:00,
2013-04-06 09:55:00,61.2,48.9,30.31,NW,314,0.0,0.0,64,0.01,,CLR,0.01,VWS V14.01,2013-04-06 13:55:00,
2013-04-06 10:00:00,62.0,48.4,30.31,NW,314,0.0,0.0,61,0.01,,CLR,0.01,VWS V14.01,2013-04-06 14:00:00,
2013-04-06 10:05:00,62.4,47.0,30.32,ENE,58,0.0,1.0,57,0.01,,CLR,0.01,VWS V14.01,2013-04-06 14:05:00,
2013-04-06 10:10:00,63.2,47.3,30.32,NW,323,0.0,2.0,56,0.01,,CLR,0.01,VWS V14.01,2013-04-06 14:10:00,
2013-04-06 10:15:00,63.5,47.1,30.33,NNE,22,0.0,0.0,55,0.01,,CLR,0.01,VWS V14.01,2013-04-06 14:15:00,
2013-04-06 10:20:00,63.9,47.4,30.33,NE,34,1.0,1.0,55,0.01,,CLR,0.01,VWS V14.01,2013-04-06 14:20:00,
2013-04-06 10:26:00,64.5,47.5,30.33,SW,234,0.0,0.0,54,0.01,,CLR,0.01,VWS V14.01,2013-04-06 14:26:00,
2013-04-06 10:31:00,65.2,46.1,30.34,NNE,32,0.0,0.0,50,0.01,,CLR,0.01,VWS V14.01,2013-04-06 14:31:00,
2013-04-06 10:36:00,65.6,46.0,30.34,North,0,0.0,1.0,49,0.01,,CLR,0.01,VWS V14.01,2013-04-06 14:36:00,
2013-04-06 10:41:00,65.8,45.0,30.34,NE,51,0.0,0.0,47,0.00,,CLR,0.01,VWS V14.01,2013-04-06 14:41:00,
2013-04-06 10:47:00,65.6,45.4,30.34,NNW,343,0.0,0.0,48,0.00,,CLR,0.01,VWS V14.01,2013-04-06 14:47:00,
2013-04-06 10:52:00,66.4,47.7,30.34,NNW,342,0.0,0.0,51,0.00,,CLR,0.01,VWS V14.01,2013-04-06 14:52:00,
2013-04-06 10:58:00,66.9,46.0,30.34,NE,39,0.0,0.0,47,0.00,,CLR,0.01,VWS V14.01,2013-04-06 14:58:00,
2013-04-06 11:03:00,67.1,45.7,30.34,SW,214,0.0,0.0,46,0.00,,CLR,0.01,VWS V14.01,2013-04-06 15:03:00,
2013-04-06 11:08:00,67.4,44.8,30.34,NNE,31,0.0,2.0,44,0.00,,CLR,0.01,VWS V14.01,2013-04-06 15:08:00,
2013-04-06 11:13:00,67.6,43.7,30.34,NE,56,0.0,0.0,42,0.00,,CLR,0.01,VWS V14.01,2013-04-06 15:13:00,
2013-04-06 11:18:00,68.1,44.8,30.34,NNE,18,0.0,2.0,43,0.00,,CLR,0.01,VWS V14.01,2013-04-06 15:18:00,
2013-04-06 11:23:00,68.9,46.1,30.34,ENE,72,0.0,2.0,44,0.00,,CLR,0.01,VWS V14.01,2013-04-06 15:23:00,
2013-04-06 11:28:00,69.6,46.1,30.34,NW,314,1.0,1.0,43,0.00,,CLR,0.01,VWS V14.01,2013-04-06 15:28:00,
2013-04-06 11:34:00,69.8,45.1,30.35,East,91,3.0,3.0,41,0.00,,CLR,0.01,VWS V14.01,2013-04-06 15:34:00,
2013-04-06 11:39:00,70.1,44.0,30.35,ENE,77,0.0,0.0,39,0.00,,CLR,0.01,VWS V14.01,2013-04-06 15:39:00,
2013-04-06 11:44:00,70.6,43.1,30.35,NE,52,0.0,2.0,37,0.00,,CLR,0.01,VWS V14.01,2013-04-06 15:44:00,
2013-04-06 11:50:00,70.4,44.3,30.34,North,0,0.0,0.0,39,0.00,,CLR,0.01,VWS V14.01,2013-04-06 15:50:00,
2013-04-06 11:55:00,71.1,43.5,30.34,ENE,72,0.0,0.0,37,0.00,,CLR,0.01,VWS V14.01,2013-04-06 15:55:00,
2013-04-06 12:00:00,71.5,43.9,30.34,ENE,77,0.0,1.0,37,0.00,,CLR,0.01,VWS V14.01,2013-04-06 16:00:00,
2013-04-06 12:05:00,71.6,44.0,30.34,ENE,58,0.0,1.0,37,0.00,,CLR,0.01,VWS V14.01,2013-04-06 16:05:00,
2013-04-06 12:10:00,71.3,40.7,30.34,ENE,67,0.0,3.0,33,0.00,,CLR,0.01,VWS V14.01,2013-04-06 16:10:00,
2013-04-06 12:16:00,71.1,41.3,30.35,East,97,0.0,0.0,34,0.00,,CLR,0.01,VWS V14.01,2013-04-06 16:16:00,
2013-04-06 12:21:00,71.5,42.4,30.35,East,86,0.0,3.0,35,0.00,,CLR,0.01,VWS V14.01,2013-04-06 16:21:00,
2013-04-06 12:26:00,71.8,42.7,30.35,ENE,77,0.0,2.0,35,0.00,,CLR,0.01,VWS V14.01,2013-04-06 16:26:00,
2013-04-06 12:32:00,72.1,43.0,30.34,North,358,0.0,1.0,35,0.00,,CLR,0.01,VWS V14.01,2013-04-06 16:32:00,
2013-04-06 12:37:00,72.1,43.0,30.34,ENE,72,0.0,0.0,35,0.00,,CLR,0.01,VWS V14.01,2013-04-06 16:37:00,
2013-04-06 12:42:00,72.0,40.6,30.34,NE,56,0.0,0.0,32,0.00,,CLR,0.01,VWS V14.01,2013-04-06 16:42:00,
2013-04-06 12:47:00,71.8,42.7,30.34,NE,42,0.0,0.0,35,0.00,,CLR,0.01,VWS V14.01,2013-04-06 16:47:00,
2013-04-06 12:52:00,72.0,42.1,30.34,ENE,70,0.0,6.0,34,0.00,,CLR,0.01,VWS V14.01,2013-04-06 16:52:00,
2013-04-06 12:57:00,72.1,40.7,30.34,ENE,59,0.0,0.0,32,0.00,,CLR,0.01,VWS V14.01,2013-04-06 16:57:00,
2013-04-06 13:03:00,72.5,41.0,30.34,NE,50,1.0,1.0,32,0.00,,CLR,0.01,VWS V14.01,2013-04-06 17:03:00,
2013-04-06 13:08:00,72.1,42.2,30.34,NE,49,0.0,1.0,34,0.00,,CLR,0.01,VWS V14.01,2013-04-06 17:08:00,
2013-04-06 13:13:00,72.3,40.8,30.34,NE,55,0.0,0.0,32,0.00,,CLR,0.01,VWS V14.01,2013-04-06 17:13:00,
2013-04-06 13:18:00,72.8,41.3,30.34,ENE,77,2.0,4.0,32,0.00,,CLR,0.01,VWS V14.01,2013-04-06 17:18:00,
2013-04-06 13:23:00,72.7,38.6,30.34,NE,36,2.0,4.0,29,0.00,,CLR,0.01,VWS V14.01,2013-04-06 17:23:00,
2013-04-06 13:28:00,72.5,41.0,30.34,SE,136,2.0,2.0,32,0.00,,CLR,0.01,VWS V14.01,2013-04-06 17:28:00,
2013-04-06 13:34:00,72.1,36.3,30.34,SE,127,0.0,1.0,27,0.00,,CLR,0.01,VWS V14.01,2013-04-06 17:34:00,
2013-04-06 13:39:00,72.3,40.0,30.34,NE,55,0.0,1.0,31,0.00,,CLR,0.01,VWS V14.01,2013-04-06 17:39:00,
2013-04-06 13:44:00,72.3,37.4,30.34,SSW,205,1.0,7.0,28,0.00,,CLR,0.01,VWS V14.01,2013-04-06 17:44:00,
2013-04-06 13:50:00,72.0,37.1,30.34,East,94,1.0,4.0,28,0.00,,CLR,0.01,VWS V14.01,2013-04-06 17:50:00,
2013-04-06 13:55:00,71.8,37.0,30.34,North,9,3.0,3.0,28,0.00,,CLR,0.01,VWS V14.01,2013-04-06 17:55:00,
2013-04-06 14:00:00,71.6,38.6,30.34,ENE,65,0.0,5.0,30,0.00,,CLR,0.01,VWS V14.01,2013-04-06 18:00:00,
2013-04-06 14:05:00,72.0,39.7,30.34,ENE,71,1.0,5.0,31,0.00,,CLR,0.01,VWS V14.01,2013-04-06 18:05:00,
2013-04-06 14:10:00,71.8,37.9,30.34,NW,319,2.0,3.0,29,0.00,,CLR,0.01,VWS V14.01,2013-04-06 18:10:00,
2013-04-06 14:16:00,71.8,40.4,30.34,North,0,0.0,1.0,32,0.00,,CLR,0.01,VWS V14.01,2013-04-06 18:16:00,
2013-04-06 14:21:00,71.5,40.1,30.34,East,82,0.0,2.0,32,0.00,,CLR,0.01,VWS V14.01,2013-04-06 18:21:00,
2013-04-06 14:26:00,71.5,42.4,30.34,NE,53,0.0,5.0,35,0.00,,CLR,0.01,VWS V14.01,2013-04-06 18:26:00,
2013-04-06 14:31:00,71.3,43.0,30.34,ESE,113,2.0,9.0,36,0.00,,CLR,0.01,VWS V14.01,2013-04-06 18:31:00,
2013-04-06 14:36:00,71.1,43.5,30.34,North,2,0.0,0.0,37,0.00,,CLR,0.01,VWS V14.01,2013-04-06 18:36:00,
2013-04-06 14:42:00,71.1,44.2,30.34,East,91,0.0,2.0,38,0.00,,CLR,0.01,VWS V14.01,2013-04-06 18:42:00,
2013-04-06 14:47:00,70.9,42.6,30.34,East,97,3.0,3.0,36,0.00,,CLR,0.01,VWS V14.01,2013-04-06 18:47:00,
2013-04-06 14:52:00,70.6,43.8,30.34,ESE,111,0.0,2.0,38,0.00,,CLR,0.01,VWS V14.01,2013-04-06 18:52:00,
2013-04-06 14:57:00,70.4,45.0,30.34,East,84,4.0,6.0,40,0.00,,CLR,0.01,VWS V14.01,2013-04-06 18:57:00,
2013-04-06 15:02:00,70.6,44.5,30.34,NE,34,1.0,3.0,39,0.00,,CLR,0.01,VWS V14.01,2013-04-06 19:02:00,
2013-04-06 15:07:00,70.6,43.1,30.34,NE,53,0.0,3.0,37,0.00,,CLR,0.01,VWS V14.01,2013-04-06 19:07:00,
2013-04-06 15:13:00,70.4,45.6,30.34,NE,43,1.0,4.0,41,0.00,,CLR,0.01,VWS V14.01,2013-04-06 19:13:00,
2013-04-06 15:18:00,70.4,45.0,30.34,NE,52,0.0,10.0,40,0.00,,CLR,0.01,VWS V14.01,2013-04-06 19:18:00,
2013-04-06 15:23:00,70.3,43.5,30.34,ENE,77,1.0,7.0,38,0.00,,CLR,0.01,VWS V14.01,2013-04-06 19:23:00,
2013-04-06 15:28:00,70.8,44.0,30.34,South,172,2.0,3.0,38,0.00,,CLR,0.01,VWS V14.01,2013-04-06 19:28:00,
2013-04-06 15:34:00,70.9,44.0,30.34,ENE,64,2.0,3.0,38,0.00,,CLR,0.01,VWS V14.01,2013-04-06 19:34:00,
2013-04-06 15:39:00,70.9,44.0,30.34,East,83,0.0,1.0,38,0.00,,CLR,0.01,VWS V14.01,2013-04-06 19:39:00,
2013-04-06 15:44:00,71.1,43.5,30.34,NNE,20,0.0,0.0,37,0.00,,CLR,0.01,VWS V14.01,2013-04-06 19:44:00,
2013-04-06 15:49:00,71.1,43.5,30.33,NE,50,10.0,10.0,37,0.00,,CLR,0.01,VWS V14.01,2013-04-06 19:49:00,
2013-04-06 15:54:00,70.6,43.1,30.33,East,79,2.0,2.0,37,0.00,,CLR,0.01,VWS V14.01,2013-04-06 19:54:00,
2013-04-06 15:59:00,70.1,41.9,30.33,ENE,76,1.0,4.0,36,0.00,,CLR,0.01,VWS V14.01,2013-04-06 19:59:00,
2013-04-06 16:05:00,69.9,43.2,30.33,ENE,65,0.0,2.0,38,0.00,,CLR,0.01,VWS V14.01,2013-04-06 20:05:00,
2013-04-06 16:10:00,70.3,43.5,30.33,ENE,65,1.0,3.0,38,0.00,,CLR,0.01,VWS V14.01,2013-04-06 20:10:00,
2013-04-06 16:15:00,69.9,43.2,30.33,NNE,18,3.0,9.0,38,0.00,,CLR,0.01,VWS V14.01,2013-04-06 20:15:00,
2013-04-06 16:20:00,69.6,40.8,30.33,ENE,59,0.0,2.0,35,0.00,,CLR,0.01,VWS V14.01,2013-04-06 20:20:00,
2013-04-06 16:25:00,69.6,41.5,30.33,NNE,32,1.0,10.0,36,0.00,,CLR,0.01,VWS V14.01,2013-04-06 20:25:00,
2013-04-06 16:30:00,69.6,41.5,30.33,NNE,23,0.0,2.0,36,0.00,,CLR,0.01,VWS V14.01,2013-04-06 20:30:00,
2013-04-06 16:35:00,69.4,41.3,30.32,East,79,0.0,6.0,36,0.00,,CLR,0.01,VWS V14.01,2013-04-06 20:35:00,
2013-04-06 16:41:00,69.4,41.3,30.32,NNE,13,0.0,2.0,36,0.00,,CLR,0.01,VWS V14.01,2013-04-06 20:41:00,
2013-04-06 16:46:00,69.8,40.2,30.32,NW,323,0.0,7.0,34,0.00,,CLR,0.01,VWS V14.01,2013-04-06 20:46:00,
2013-04-06 16:52:00,69.6,39.2,30.32,NE,34,5.0,6.0,33,0.00,,CLR,0.01,VWS V14.01,2013-04-06 20:52:00,
2013-04-06 16:57:00,69.3,39.0,30.32,East,93,0.0,6.0,33,0.00,,CLR,0.01,VWS V14.01,2013-04-06 20:57:00,
2013-04-06 17:02:00,69.1,40.3,30.33,ENE,76,0.0,5.0,35,0.00,,CLR,0.01,VWS V14.01,2013-04-06 21:02:00,
2013-04-06 17:07:00,69.1,38.0,30.33,NNE,31,0.0,5.0,32,0.00,,CLR,0.01,VWS V14.01,2013-04-06 21:07:00,
2013-04-06 17:12:00,68.9,38.6,30.33,East,92,0.0,1.0,33,0.00,,CLR,0.01,VWS V14.01,2013-04-06 21:12:00,
2013-04-06 17:17:00,68.4,36.6,30.33,NNE,17,0.0,5.0,31,0.00,,CLR,0.01,VWS V14.01,2013-04-06 21:17:00,
2013-04-06 17:23:00,68.1,39.4,30.33,North,0,1.0,5.0,35,0.00,,CLR,0.01,VWS V14.01,2013-04-06 21:23:00,
2013-04-06 17:28:00,68.3,40.3,30.33,East,94,0.0,2.0,36,0.00,,CLR,0.01,VWS V14.01,2013-04-06 21:28:00,
2013-04-06 17:33:00,68.3,39.6,30.34,ENE,57,1.0,4.0,35,0.00,,CLR,0.01,VWS V14.01,2013-04-06 21:33:00,
2013-04-06 17:38:00,67.8,39.2,30.34,East,80,1.0,5.0,35,0.00,,CLR,0.01,VWS V14.01,2013-04-06 21:38:00,
2013-04-06 17:44:00,67.4,39.5,30.34,ENE,65,0.0,4.0,36,0.00,,CLR,0.01,VWS V14.01,2013-04-06 21:44:00,
2013-04-06 17:49:00,67.1,39.3,30.34,East,90,0.0,4.0,36,0.00,,CLR,0.01,VWS V14.01,2013-04-06 21:49:00,
2013-04-06 17:54:00,66.9,39.8,30.34,NE,38,1.0,2.0,37,0.00,,CLR,0.01,VWS V14.01,2013-04-06 21:54:00,
2013-04-06 17:59:00,66.9,39.8,30.34,NE,56,1.0,5.0,37,0.00,,CLR,0.01,VWS V14.01,2013-04-06 21:59:00,
2013-04-06 18:04:00,66.8,39.7,30.34,ENE,70,0.0,1.0,37,0.00,,FEW250,0.01,VWS V14.01,2013-04-06 22:04:00,
2013-04-06 18:09:00,66.6,41.5,30.34,East,93,0.0,1.0,40,0.00,,FEW250,0.01,VWS V14.01,2013-04-06 22:09:00,
2013-04-06 18:14:00,66.3,41.3,30.34,ENE,60,1.0,3.0,40,0.00,,FEW250,0.01,VWS V14.01,2013-04-06 22:14:00,
2013-04-06 18:20:00,65.8,41.5,30.35,East,94,0.0,0.0,41,0.00,,FEW250,0.01,VWS V14.01,2013-04-06 22:20:00,
2013-04-06 18:25:00,65.5,41.8,30.35,ENE,76,0.0,1.0,42,0.00,,FEW250,0.01,VWS V14.01,2013-04-06 22:25:00,
2013-04-06 18:30:00,65.2,41.5,30.35,ENE,58,1.0,5.0,42,0.00,,FEW250,0.01,VWS V14.01,2013-04-06 22:30:00,
2013-04-06 18:35:00,64.7,42.9,30.36,ENE,63,1.0,2.0,45,0.00,,FEW250,0.01,VWS V14.01,2013-04-06 22:35:00,
2013-04-06 18:40:00,64.2,42.4,30.36,North,1,0.0,0.0,45,0.00,,FEW250,0.01,VWS V14.01,2013-04-06 22:40:00,
2013-04-06 18:45:00,63.9,43.3,30.36,NE,54,2.0,2.0,47,0.00,,FEW250,0.01,VWS V14.01,2013-04-06 22:45:00,
2013-04-06 18:50:00,63.5,43.5,30.36,NE,47,0.0,1.0,48,0.00,,FEW250,0.01,VWS V14.01,2013-04-06 22:50:00,
2013-04-06 18:55:00,63.2,44.8,30.36,North,11,1.0,5.0,51,0.00,,FEW250,0.01,VWS V14.01,2013-04-06 22:55:00,
2013-04-06 19:01:00,62.7,45.8,30.36,ENE,72,0.0,2.0,54,0.00,,SCT250,0.01,VWS V14.01,2013-04-06 23:01:00,
2013-04-06 19:06:00,62.1,45.8,30.36,NE,51,0.0,3.0,55,0.00,,SCT250,0.01,VWS V14.01,2013-04-06 23:06:00,
2013-04-06 19:11:00,61.5,45.7,30.36,North,0,0.0,4.0,56,0.00,,SCT250,0.01,VWS V14.01,2013-04-06 23:11:00,
2013-04-06 19:16:00,61.0,45.7,30.36,ENE,63,0.0,0.0,57,0.00,,SCT250,0.01,VWS V14.01,2013-04-06 23:16:00,
2013-04-06 19:22:00,60.4,45.6,30.36,ENE,62,0.0,0.0,58,0.00,,SCT250,0.01,VWS V14.01,2013-04-06 23:22:00,
2013-04-06 19:27:00,59.9,46.0,30.36,ESE,109,0.0,2.0,60,0.00,,SCT250,0.01,VWS V14.01,2013-04-06 23:27:00,
2013-04-06 19:32:00,59.5,46.1,30.36,ENE,63,0.0,0.0,61,0.00,,SCT250,0.01,VWS V14.01,2013-04-06 23:32:00,
2013-04-06 19:37:00,59.0,46.4,30.36,NE,51,0.0,1.0,63,0.00,,SCT250,0.01,VWS V14.01,2013-04-06 23:37:00,
2013-04-06 19:42:00,58.6,46.5,30.36,NE,53,0.0,0.0,64,0.00,,SCT250,0.01,VWS V14.01,2013-04-06 23:42:00,
2013-04-06 19:47:00,58.3,46.6,30.37,NE,49,0.0,0.0,65,0.00,,SCT250,0.01,VWS V14.01,2013-04-06 23:47:00,
2013-04-06 19:52:00,58.0,46.7,30.37,ENE,77,0.0,3.0,66,0.00,,SCT250,0.01,VWS V14.01,2013-04-06 23:52:00,
2013-04-06 19:57:00,57.6,47.1,30.37,ENE,58,0.0,0.0,68,0.00,,SCT250,0.01,VWS V14.01,2013-04-06 23:57:00,
2013-04-06 20:02:00,57.3,47.2,30.37,ENE,68,0.0,2.0,69,0.00,,BKN250,0.01,VWS V14.01,2013-04-07 00:02:00,
2013-04-06 20:07:00,57.2,47.5,30.37,ENE,71,0.0,0.0,70,0.00,,BKN250,0.01,VWS V14.01,2013-04-07 00:07:00,
2013-04-06 20:12:00,56.9,47.6,30.37,ENE,71,0.0,0.0,71,0.00,,BKN250,0.01,VWS V14.01,2013-04-07 00:12:00,
2013-04-06 20:17:00,56.6,47.7,30.37,ENE,71,0.0,0.0,72,0.00,,BKN250,0.01,VWS V14.01,2013-04-07 00:17:00,
2013-04-06 20:22:00,56.5,48.0,30.37,ENE,71,0.0,0.0,73,0.00,,BKN250,0.01,VWS V14.01,2013-04-07 00:22:00,
2013-04-06 20:27:00,56.2,48.0,30.37,ENE,70,0.0,0.0,74,0.00,,BKN250,0.01,VWS V14.01,2013-04-07 00:27:00,
2013-04-06 20:32:00,56.0,47.8,30.38,ENE,70,0.0,0.0,74,0.00,,BKN250,0.01,VWS V14.01,2013-04-07 00:32:00,
2013-04-06 20:38:00,55.9,48.1,30.38,ENE,70,0.0,0.0,75,0.00,,BKN250,0.01,VWS V14.01,2013-04-07 00:38:00,
2013-04-06 20:43:00,55.7,48.3,30.38,ENE,70,0.0,0.0,76,0.00,,BKN250,0.01,VWS V14.01,2013-04-07 00:43:00,
2013-04-06 20:48:00,55.6,48.2,30.39,ENE,70,0.0,0.0,76,0.00,,BKN250,0.01,VWS V14.01,2013-04-07 00:48:00,
2013-04-06 20:53:00,55.4,48.3,30.39,ENE,70,0.0,0.0,77,0.00,,BKN250,0.01,VWS V14.01,2013-04-07 00:53:00,
2013-04-06 20:58:00,55.3,48.2,30.39,ENE,70,0.0,0.0,77,0.00,,BKN250,0.01,VWS V14.01,2013-04-07 00:58:00,
2013-04-06 21:04:00,55.1,48.4,30.39,ENE,70,0.0,0.0,78,0.00,,BKN250,0.01,VWS V14.01,2013-04-07 01:04:00,
2013-04-06 21:09:00,55.0,48.3,30.39,ENE,70,0.0,0.0,78,0.00,,BKN250,0.01,VWS V14.01,2013-04-07 01:09:00,
2013-04-06 21:14:00,54.8,48.1,30.39,ENE,70,0.0,0.0,78,0.00,,BKN250,0.01,VWS V14.01,2013-04-07 01:14:00,
2013-04-06 21:19:00,54.7,48.3,30.39,ENE,70,0.0,0.0,79,0.00,,BKN250,0.01,VWS V14.01,2013-04-07 01:19:00,
2013-04-06 21:25:00,54.5,48.1,30.39,ENE,70,0.0,0.0,79,0.00,,BKN250,0.01,VWS V14.01,2013-04-07 01:25:00,
2013-04-06 21:30:00,54.4,48.4,30.39,ENE,70,0.0,0.0,80,0.00,,BKN250,0.01,VWS V14.01,2013-04-07 01:30:00,
2013-04-06 21:35:00,54.4,48.4,30.40,ENE,70,0.0,0.0,80,0.00,,BKN250,0.01,VWS V14.01,2013-04-07 01:35:00,
2013-04-06 21:40:00,54.1,48.4,30.40,ENE,70,0.0,0.0,81,0.00,,BKN250,0.01,VWS V14.01,2013-04-07 01:40:00,
2013-04-06 21:45:00,53.9,48.2,30.40,ENE,70,0.0,0.0,81,0.00,,BKN250,0.01,VWS V14.01,2013-04-07 01:45:00,
2013-04-06 21:50:00,53.8,48.4,30.40,ENE,70,0.0,0.0,82,0.00,,BKN250,0.01,VWS V14.01,2013-04-07 01:50:00,
2013-04-06 21:55:00,53.6,48.2,30.40,ENE,70,0.0,0.0,82,0.00,,BKN250,0.01,VWS V14.01,2013-04-07 01:55:00,
2013-04-06 22:00:00,53.5,48.5,30.40,ENE,70,0.0,0.0,83,0.00,,BKN250,0.01,VWS V14.01,2013-04-07 02:00:00,
2013-04-06 22:05:00,53.3,48.3,30.40,ENE,70,0.0,0.0,83,0.00,,SCT250,0.01,VWS V14.01,2013-04-07 02:05:00,
2013-04-06 22:10:00,53.2,48.5,30.40,ENE,70,0.0,0.0,84,0.00,,SCT250,0.01,VWS V14.01,2013-04-07 02:10:00,
2013-04-06 22:16:00,52.9,48.2,30.40,ENE,70,0.0,0.0,84,0.00,,SCT250,0.01,VWS V14.01,2013-04-07 02:16:00,
2013-04-06 22:21:00,52.6,47.9,30.40,ENE,70,0.0,0.0,84,0.00,,SCT250,0.01,VWS V14.01,2013-04-07 02:21:00,
2013-04-06 22:27:00,52.3,47.9,30.40,ENE,70,0.0,0.0,85,0.00,,SCT250,0.01,VWS V14.01,2013-04-07 02:27:00,
2013-04-06 22:32:00,52.2,48.2,30.40,ENE,70,0.0,0.0,86,0.00,,SCT250,0.01,VWS V14.01,2013-04-07 02:32:00,
2013-04-06 22:37:00,51.9,47.8,30.40,ENE,70,0.0,0.0,86,0.00,,SCT250,0.01,VWS V14.01,2013-04-07 02:37:00,
2013-04-06 22:42:00,51.6,47.6,30.40,ENE,70,0.0,0.0,86,0.00,,SCT250,0.01,VWS V14.01,2013-04-07 02:42:00,
2013-04-06 22:47:00,51.4,47.7,30.39,ENE,70,0.0,0.0,87,0.00,,SCT250,0.01,VWS V14.01,2013-04-07 02:47:00,
2013-04-06 22:52:00,51.1,47.4,30.39,ENE,70,0.0,0.0,87,0.00,,SCT250,0.01,VWS V14.01,2013-04-07 02:52:00,
2013-04-06 22:57:00,51.0,47.6,30.39,ENE,70,0.0,0.0,88,0.00,,SCT250,0.01,VWS V14.01,2013-04-07 02:57:00,
2013-04-06 23:03:00,50.7,47.3,30.40,ENE,70,0.0,0.0,88,0.00,,FEW250,0.01,VWS V14.01,2013-04-07 03:03:00,
2013-04-06 23:08:00,50.4,47.0,30.40,ENE,70,0.0,0.0,88,0.00,,FEW250,0.01,VWS V14.01,2013-04-07 03:08:00,
2013-04-06 23:13:00,50.1,46.7,30.40,ENE,70,0.0,0.0,88,0.00,,FEW250,0.01,VWS V14.01,2013-04-07 03:13:00,
2013-04-06 23:18:00,49.8,46.4,30.40,ENE,70,0.0,0.0,88,0.00,,FEW250,0.01,VWS V14.01,2013-04-07 03:18:00,
2013-04-06 23:24:00,49.4,46.0,30.40,ENE,70,0.0,0.0,88,0.00,,FEW250,0.01,VWS V14.01,2013-04-07 03:24:00,
2013-04-06 23:29:00,49.5,47.0,30.40,ENE,70,0.0,0.0,91,0.00,,FEW250,0.01,VWS V14.01,2013-04-07 03:29:00,
2013-04-06 23:34:00,49.6,47.1,30.40,ENE,70,0.0,0.0,91,0.00,,FEW250,0.01,VWS V14.01,2013-04-07 03:34:00,
2013-04-06 23:40:00,49.5,47.0,30.40,ENE,70,0.0,0.0,91,0.00,,FEW250,0.01,VWS V14.01,2013-04-07 03:40:00,
2013-04-06 23:45:00,49.4,46.9,30.40,ENE,70,0.0,0.0,91,0.00,,FEW250,0.01,VWS V14.01,2013-04-07 03:45:00,
2013-04-06 23:50:00,49.1,46.6,30.40,ENE,70,0.0,0.0,91,0.00,,FEW250,0.01,VWS V14.01,2013-04-07 03:50:00,
2013-04-06 23:55:00,48.8,46.3,30.40,ENE,70,0.0,0.0,91,0.00,,FEW250,0.01,VWS V14.01,2013-04-07 03:55:00,